createdAt,value
2023-05-04T00:01:23.234Z,3.70
2023-05-04T00:04:59.257Z,4.10
2023-05-04T00:07:26.585Z,4.20
2023-05-04T00:09:53.636Z,3.90
2023-05-04T00:12:20.828Z,4.20
2023-05-04T00:14:47.805Z,4.20
2023-05-04T00:17:14.847Z,4.20
2023-05-04T00:19:43.084Z,4.00
2023-05-04T00:22:10.227Z,4.20
2023-05-04T00:24:37.254Z,3.60
2023-05-04T00:27:04.576Z,4.20
2023-05-04T00:29:32.214Z,4.10
2023-05-04T00:31:59.340Z,3.80
2023-05-04T00:34:26.537Z,3.90
2023-05-04T00:36:53.672Z,4.30
2023-05-04T00:39:20.962Z,4.00
2023-05-04T00:41:48.080Z,3.70
2023-05-04T00:44:15.111Z,3.70
2023-05-04T00:46:42.224Z,3.90
2023-05-04T00:49:09.246Z,3.60
2023-05-04T00:51:36.342Z,3.90
2023-05-04T00:54:03.992Z,3.90
2023-05-04T00:56:31.265Z,3.60
2023-05-04T00:58:58.876Z,3.20
2023-05-04T01:01:26.227Z,4.00
2023-05-04T01:03:54.464Z,3.70
2023-05-04T01:06:34.257Z,3.50
2023-05-04T01:09:29.060Z,3.40
2023-05-04T01:12:12.988Z,3.90
2023-05-04T01:14:40.069Z,4.90
2023-05-04T01:17:07.744Z,4.70
2023-05-04T01:19:34.852Z,4.40
2023-05-04T01:22:02.988Z,4.20
2023-05-04T01:24:30.138Z,5.20
2023-05-04T01:27:06.162Z,4.00
2023-05-04T01:29:59.896Z,5.10
2023-05-04T01:34:56.096Z,4.00
2023-05-04T01:37:23.181Z,4.90
2023-05-04T01:39:51.532Z,4.50
2023-05-04T01:42:18.534Z,5.20
2023-05-04T01:44:45.727Z,3.40
2023-05-04T01:47:12.706Z,2.60
2023-05-04T01:49:39.722Z,2.90
2023-05-04T01:52:06.846Z,3.10
2023-05-04T01:54:33.980Z,3.50
2023-05-04T01:57:02.154Z,4.40
2023-05-04T01:59:29.145Z,4.10
2023-05-04T02:01:56.648Z,4.10
2023-05-04T02:04:23.713Z,3.80
2023-05-04T02:06:50.756Z,4.20
2023-05-04T02:09:17.988Z,4.20
2023-05-04T02:11:45.005Z,4.30
2023-05-04T02:14:12.146Z,4.10
2023-05-04T02:16:40.095Z,3.80
2023-05-04T02:19:07.297Z,4.30
2023-05-04T02:21:35.696Z,4.50
2023-05-04T02:24:05.107Z,4.10
2023-05-04T02:26:32.243Z,4.20
2023-05-04T02:28:59.286Z,4.50
2023-05-04T02:31:26.407Z,4.50
2023-05-04T02:33:53.916Z,4.10
2023-05-04T02:36:20.999Z,4.30
2023-05-04T02:38:48.018Z,4.40
2023-05-04T02:41:15.286Z,4.20
2023-05-04T02:43:42.330Z,4.50
2023-05-04T02:46:09.439Z,4.20
2023-05-04T02:48:36.539Z,4.00
2023-05-04T02:51:03.829Z,3.90
2023-05-04T02:53:30.974Z,3.50
2023-05-04T02:55:58.031Z,3.80
2023-05-04T02:58:25.153Z,3.50
2023-05-04T03:00:56.260Z,3.80
2023-05-04T03:03:23.318Z,3.90
2023-05-04T03:05:50.347Z,4.00
2023-05-04T03:08:17.447Z,4.10
2023-05-04T03:10:44.489Z,3.70
2023-05-04T03:13:11.572Z,4.20
2023-05-04T03:15:38.588Z,4.20
2023-05-04T03:18:05.944Z,4.30
2023-05-04T03:20:33.034Z,4.60
2023-05-04T03:23:01.414Z,4.10
2023-05-04T03:25:28.577Z,4.10
2023-05-04T03:27:56.352Z,4.10
2023-05-04T03:30:23.575Z,3.70
2023-05-04T03:32:50.674Z,4.20
2023-05-04T03:35:24.281Z,4.40
2023-05-04T03:37:52.777Z,3.70
2023-05-04T03:40:24.531Z,3.60
2023-05-04T03:45:20.308Z,3.50
2023-05-04T03:47:47.317Z,3.60
2023-05-04T03:50:14.522Z,3.80
2023-05-04T03:52:42.721Z,3.70
2023-05-04T03:55:10.525Z,3.50
2023-05-04T03:57:37.586Z,3.20
2023-05-04T04:00:06.550Z,3.40
2023-05-04T04:02:42.283Z,3.30
2023-05-04T04:05:13.893Z,3.00
2023-05-04T04:07:41.678Z,3.20
2023-05-04T04:10:09.756Z,3.30
2023-05-04T04:12:36.923Z,3.00
2023-05-04T04:15:04.516Z,3.30
2023-05-04T04:17:31.625Z,6.70
2023-05-04T04:19:58.636Z,5.80
2023-05-04T04:22:26.641Z,5.60
2023-05-04T04:24:53.631Z,4.30
2023-05-04T04:27:20.821Z,3.50
2023-05-04T04:29:47.798Z,3.70
2023-05-04T04:32:14.850Z,3.10
2023-05-04T04:34:41.882Z,2.60
2023-05-04T04:37:08.965Z,2.90
2023-05-04T04:39:36.244Z,2.90
2023-05-04T04:42:04.059Z,3.50
2023-05-04T04:44:31.092Z,4.00
2023-05-04T04:46:58.225Z,4.70
2023-05-04T04:49:26.279Z,4.10
2023-05-04T04:51:53.309Z,4.00
2023-05-04T04:54:21.010Z,3.70
2023-05-04T04:56:48.130Z,3.70
2023-05-04T04:59:15.115Z,2.90
2023-05-04T05:01:42.469Z,3.20
2023-05-04T05:04:09.595Z,2.80
2023-05-04T05:06:36.994Z,2.70
2023-05-04T05:09:04.160Z,2.90
2023-05-04T05:11:31.494Z,2.90
2023-05-04T05:14:00.164Z,2.70
2023-05-04T05:16:27.260Z,2.40
2023-05-04T05:18:54.306Z,2.40
2023-05-04T05:21:21.281Z,2.70
2023-05-04T05:23:48.382Z,2.50
2023-05-04T05:26:15.401Z,2.50
2023-05-04T05:28:42.372Z,2.60
2023-05-04T05:31:09.920Z,2.60
2023-05-04T05:33:37.339Z,2.20
2023-05-04T05:36:06.332Z,2.20
2023-05-04T05:38:33.429Z,2.20
2023-05-04T05:41:00.445Z,1.80
2023-05-04T05:43:27.569Z,1.80
2023-05-04T05:45:54.679Z,1.70
2023-05-04T05:48:21.748Z,2.00
2023-05-04T05:50:48.790Z,2.10
2023-05-04T05:53:16.048Z,1.80
2023-05-04T05:55:43.031Z,1.90
2023-05-04T05:58:09.981Z,2.00
2023-05-04T06:00:37.011Z,2.30
2023-05-04T06:03:04.173Z,2.10
2023-05-04T06:05:33.833Z,2.20
2023-05-04T06:08:01.107Z,2.00
2023-05-04T06:10:28.241Z,2.10
2023-05-04T06:12:55.361Z,1.90
2023-05-04T06:15:22.667Z,2.00
2023-05-04T06:17:50.096Z,1.70
2023-05-04T06:20:17.138Z,1.80
2023-05-04T06:22:44.157Z,2.00
2023-05-04T06:25:11.730Z,1.80
2023-05-04T06:27:38.709Z,2.00
2023-05-04T06:30:06.934Z,2.00
2023-05-04T06:32:34.388Z,2.00
2023-05-04T06:35:02.769Z,1.70
2023-05-04T06:37:30.064Z,1.80
2023-05-04T06:39:57.185Z,1.70
2023-05-04T06:42:24.286Z,1.80
2023-05-04T06:44:52.694Z,1.70
2023-05-04T06:47:19.717Z,1.60
2023-05-04T06:49:46.699Z,1.70
2023-05-04T06:52:14.624Z,1.60
2023-05-04T06:54:41.616Z,1.50
2023-05-04T06:57:08.647Z,1.40
2023-05-04T06:59:35.620Z,1.40
2023-05-04T07:02:02.765Z,1.30
2023-05-04T07:04:29.804Z,1.30
2023-05-04T07:06:56.932Z,1.20
2023-05-04T07:09:24.007Z,1.50
2023-05-04T07:11:51.303Z,1.40
2023-05-04T07:14:18.288Z,1.30
2023-05-04T07:16:45.330Z,1.40
2023-05-04T07:19:12.361Z,1.40
2023-05-04T07:21:39.404Z,1.30
2023-05-04T07:24:07.392Z,1.40
2023-05-04T07:26:34.442Z,1.30
2023-05-04T07:29:01.506Z,1.30
2023-05-04T07:31:30.186Z,1.10
2023-05-04T07:33:57.671Z,1.10
2023-05-04T07:36:26.756Z,1.50
2023-05-04T07:38:54.337Z,1.40
2023-05-04T07:41:21.555Z,1.20
2023-05-04T07:43:48.610Z,1.20
2023-05-04T07:46:16.644Z,1.30
2023-05-04T07:48:43.794Z,1.20
2023-05-04T07:51:14.956Z,1.60
2023-05-04T07:53:43.310Z,1.40
2023-05-04T07:56:11.758Z,1.40
2023-05-04T07:58:38.784Z,1.30
2023-05-04T08:01:05.888Z,1.30
2023-05-04T08:03:32.963Z,1.20
2023-05-04T08:06:00.034Z,1.30
2023-05-04T08:08:27.536Z,1.20
2023-05-04T08:10:57.714Z,1.20
2023-05-04T08:13:29.370Z,1.20
2023-05-04T08:16:01.360Z,1.30
2023-05-04T08:18:28.431Z,1.20
2023-05-04T08:20:55.462Z,1.10
2023-05-04T08:23:22.508Z,1.30
2023-05-04T08:25:49.540Z,1.30
2023-05-04T08:28:16.645Z,1.30
2023-05-04T08:30:43.797Z,1.20
2023-05-04T08:33:10.839Z,1.10
2023-05-04T08:35:38.162Z,1.00
2023-05-04T08:38:05.178Z,1.10
2023-05-04T08:40:33.962Z,1.30
2023-05-04T08:43:01.069Z,1.40
2023-05-04T08:45:28.176Z,1.10
2023-05-04T08:47:55.313Z,1.10
2023-05-04T08:50:22.440Z,1.10
2023-05-04T08:52:49.608Z,1.20
2023-05-04T08:55:17.370Z,1.20
2023-05-04T08:57:44.532Z,1.00
2023-05-04T09:00:12.851Z,1.10
2023-05-04T09:02:40.008Z,1.00
2023-05-04T09:05:08.347Z,1.10
2023-05-04T09:07:35.479Z,1.20
2023-05-04T09:10:04.209Z,1.10
2023-05-04T09:12:31.745Z,1.10
2023-05-04T09:14:59.600Z,1.20
2023-05-04T09:17:28.215Z,1.10
2023-05-04T09:20:02.364Z,1.20
2023-05-04T09:22:29.863Z,1.10
2023-05-04T09:25:10.669Z,1.30
2023-05-04T09:27:38.360Z,1.00
2023-05-04T09:30:06.294Z,1.20
2023-05-04T09:32:47.001Z,1.10
2023-05-04T09:35:29.238Z,1.10
2023-05-04T09:37:59.366Z,1.10
2023-05-04T09:40:33.354Z,1.00
2023-05-04T09:43:01.333Z,1.30
2023-05-04T09:45:39.738Z,1.20
2023-05-04T09:48:27.277Z,1.10
2023-05-04T09:51:01.108Z,1.00
2023-05-04T09:53:30.060Z,1.20
2023-05-04T09:56:28.838Z,1.20
2023-05-04T09:58:58.013Z,1.20
2023-05-04T10:01:31.405Z,1.00
2023-05-04T10:03:59.029Z,1.10
2023-05-04T10:06:26.574Z,1.10
2023-05-04T10:08:53.620Z,1.20
2023-05-04T10:11:21.655Z,1.10
2023-05-04T10:13:48.675Z,1.10
2023-05-04T10:16:32.026Z,1.10
2023-05-04T10:19:15.450Z,0.90
2023-05-04T10:22:06.209Z,1.20
2023-05-04T10:24:45.374Z,1.10
2023-05-04T10:27:17.613Z,1.10
2023-05-04T10:29:48.662Z,1.00
2023-05-04T10:32:22.485Z,1.00
2023-05-04T10:34:49.692Z,1.00
2023-05-04T10:37:20.585Z,1.00
2023-05-04T10:39:54.305Z,0.90
2023-05-04T10:42:21.810Z,1.00
2023-05-04T10:44:50.403Z,0.90
2023-05-04T10:47:36.295Z,1.00
2023-05-04T10:50:08.358Z,1.20
2023-05-04T10:52:52.321Z,1.00
2023-05-04T10:55:20.113Z,1.00
2023-05-04T10:57:57.206Z,1.00
2023-05-04T11:00:24.709Z,0.90
2023-05-04T11:02:52.690Z,0.90
2023-05-04T11:05:20.690Z,1.00
2023-05-04T11:07:50.936Z,1.00
2023-05-04T11:10:26.674Z,1.10
2023-05-04T11:12:55.869Z,1.20
2023-05-04T11:15:23.080Z,1.00
2023-05-04T11:17:51.777Z,1.10
2023-05-04T11:20:23.300Z,0.90
2023-05-04T11:22:50.643Z,1.10
2023-05-04T11:25:17.883Z,1.00
2023-05-04T11:27:49.062Z,1.00
2023-05-04T11:30:17.519Z,1.30
2023-05-04T11:32:46.968Z,1.20
2023-05-04T11:35:25.240Z,1.10
2023-05-04T11:37:52.997Z,1.00
2023-05-04T11:40:24.435Z,1.10
2023-05-04T11:42:52.437Z,1.00
2023-05-04T11:45:22.638Z,1.00
2023-05-04T11:47:50.773Z,0.90
2023-05-04T11:50:19.224Z,0.90
2023-05-04T11:52:46.515Z,0.80
2023-05-04T11:55:27.772Z,1.00
2023-05-04T11:57:58.882Z,0.90
2023-05-04T12:00:43.989Z,1.10
2023-05-04T12:03:14.716Z,1.00
2023-05-04T12:05:48.883Z,0.90
2023-05-04T12:08:35.103Z,1.00
2023-05-04T12:11:29.172Z,0.90
2023-05-04T12:14:15.199Z,0.90
2023-05-04T12:16:43.571Z,1.00
2023-05-04T12:19:13.104Z,0.90
2023-05-04T12:22:49.343Z,1.00
2023-05-04T12:25:18.880Z,1.00
2023-05-04T12:27:46.148Z,1.10
2023-05-04T12:30:14.531Z,0.90
2023-05-04T12:32:44.843Z,0.80
2023-05-04T12:35:12.159Z,1.70
2023-05-04T12:37:39.678Z,0.80
2023-05-04T12:40:20.890Z,0.80
2023-05-04T12:42:54.955Z,1.00
2023-05-04T12:45:22.896Z,0.90
2023-05-04T12:47:49.918Z,0.90
2023-05-04T12:50:17.642Z,1.00
2023-05-04T12:52:44.799Z,0.80
2023-05-04T12:55:12.496Z,0.90
2023-05-04T12:57:39.857Z,0.90
2023-05-04T13:00:10.264Z,1.10
2023-05-04T13:02:37.924Z,1.10
2023-05-04T13:05:05.601Z,0.90
2023-05-04T13:07:32.757Z,1.30
2023-05-04T13:09:59.784Z,1.10
2023-05-04T13:12:26.820Z,1.20
2023-05-04T13:14:56.058Z,0.90
2023-05-04T13:17:23.080Z,1.00
2023-05-04T13:19:50.131Z,1.00
2023-05-04T13:22:17.266Z,0.90
2023-05-04T13:24:44.384Z,1.10
2023-05-04T13:27:11.386Z,1.10
2023-05-04T13:29:38.633Z,1.00
2023-05-04T13:32:06.752Z,1.00
2023-05-04T13:34:34.633Z,0.90
2023-05-04T13:37:01.604Z,1.00
2023-05-04T13:39:28.639Z,1.10
2023-05-04T13:41:56.127Z,1.00
2023-05-04T13:44:23.171Z,0.90
2023-05-04T13:46:50.204Z,1.10
2023-05-04T13:49:17.275Z,1.10
2023-05-04T13:51:44.314Z,0.90
2023-05-04T13:54:11.390Z,1.10
2023-05-04T13:56:38.919Z,0.90
2023-05-04T13:59:05.927Z,1.00
2023-05-04T14:01:33.076Z,1.00
2023-05-04T14:04:00.218Z,1.00
2023-05-04T14:06:29.785Z,0.80
2023-05-04T14:08:56.791Z,0.90
2023-05-04T14:11:23.812Z,0.80
2023-05-04T14:13:53.274Z,0.90
2023-05-04T14:16:20.346Z,0.90
2023-05-04T14:18:47.480Z,1.00
2023-05-04T14:21:14.544Z,1.10
2023-05-04T14:23:41.618Z,0.90
2023-05-04T14:26:08.750Z,0.90
2023-05-04T14:28:35.950Z,0.90
2023-05-04T14:31:08.927Z,0.90
2023-05-04T14:33:36.740Z,0.90
2023-05-04T14:36:04.369Z,0.80
2023-05-04T14:38:32.552Z,0.80
2023-05-04T14:40:59.535Z,0.80
2023-05-04T14:43:26.618Z,0.80
2023-05-04T14:45:53.704Z,0.90
2023-05-04T14:48:23.227Z,1.20
2023-05-04T14:50:50.219Z,0.90
2023-05-04T14:53:17.248Z,1.00
2023-05-04T14:55:45.002Z,1.00
2023-05-04T14:58:12.499Z,1.00
2023-05-04T15:00:39.717Z,1.00
2023-05-04T15:03:06.862Z,1.00
2023-05-04T15:05:34.042Z,1.20
2023-05-04T15:08:01.060Z,0.90
2023-05-04T15:10:28.176Z,1.10
2023-05-04T15:12:55.245Z,1.00
2023-05-04T15:15:22.497Z,1.00
2023-05-04T15:17:50.184Z,1.10
2023-05-04T15:20:17.617Z,1.10
2023-05-04T15:22:47.557Z,1.10
2023-05-04T15:25:14.524Z,1.20
2023-05-04T15:27:41.877Z,1.10
2023-05-04T15:30:10.256Z,1.00
2023-05-04T15:32:37.616Z,1.00
2023-05-04T15:35:06.386Z,1.00
2023-05-04T15:37:33.938Z,1.20
2023-05-04T15:40:02.547Z,1.00
2023-05-04T15:42:30.482Z,1.20
2023-05-04T15:44:57.548Z,1.30
2023-05-04T15:47:24.607Z,1.20
2023-05-04T15:49:52.693Z,1.30
2023-05-04T15:52:19.657Z,1.50
2023-05-04T15:54:47.581Z,1.70
2023-05-04T15:57:16.289Z,1.90
2023-05-04T15:59:43.470Z,1.60
2023-05-04T16:02:10.602Z,1.70
2023-05-04T16:04:37.728Z,2.10
2023-05-04T16:07:04.790Z,2.10
2023-05-04T16:09:31.849Z,2.50
2023-05-04T16:11:59.254Z,2.10
2023-05-04T16:14:26.380Z,2.50
2023-05-04T16:16:53.513Z,2.20
2023-05-04T16:19:23.152Z,2.20
2023-05-04T16:21:50.840Z,2.20
2023-05-04T16:24:17.907Z,2.00
2023-05-04T16:26:45.185Z,2.60
2023-05-04T16:29:13.149Z,2.60
2023-05-04T16:31:40.251Z,3.00
2023-05-04T16:34:07.324Z,2.80
2023-05-04T16:36:34.639Z,3.20
2023-05-04T16:39:01.740Z,3.30
2023-05-04T16:41:30.928Z,3.20
2023-05-04T16:43:58.112Z,3.50
2023-05-04T16:46:25.243Z,3.50
2023-05-04T16:48:52.486Z,3.20
2023-05-04T16:51:19.477Z,3.20
2023-05-04T16:53:46.525Z,2.90
2023-05-04T16:56:18.535Z,3.00
2023-05-04T16:58:45.966Z,2.50
2023-05-04T17:01:13.024Z,2.90
2023-05-04T17:03:40.112Z,2.60
2023-05-04T17:06:07.469Z,2.60
2023-05-04T17:08:35.091Z,2.40
2023-05-04T17:11:02.602Z,2.70
2023-05-04T17:13:29.697Z,2.30
2023-05-04T17:15:56.680Z,2.30
2023-05-04T17:18:23.680Z,5.40
2023-05-04T17:20:50.697Z,4.10
2023-05-04T17:23:17.768Z,3.30
2023-05-04T17:25:46.216Z,2.70
2023-05-04T17:28:13.596Z,2.40
2023-05-04T17:30:40.965Z,2.80
2023-05-04T17:33:08.521Z,4.50
2023-05-04T17:35:35.679Z,5.30
2023-05-04T17:38:02.729Z,4.60
2023-05-04T17:40:29.951Z,4.80
2023-05-04T17:42:57.151Z,4.40
2023-05-04T17:45:24.267Z,4.30
2023-05-04T17:47:51.701Z,4.60
2023-05-04T17:50:18.976Z,4.30
2023-05-04T17:52:50.776Z,4.60
2023-05-04T17:55:17.774Z,6.00
2023-05-04T17:57:44.825Z,6.20
2023-05-04T18:00:12.746Z,7.20
2023-05-04T18:02:39.835Z,6.80
2023-05-04T18:05:07.876Z,6.70
2023-05-04T18:07:34.930Z,7.20
2023-05-04T18:10:02.556Z,4.80
2023-05-04T18:12:30.867Z,5.20
2023-05-04T18:14:58.013Z,4.30
2023-05-04T18:17:26.788Z,4.10
2023-05-04T18:19:53.810Z,3.90
2023-05-04T18:22:21.693Z,3.70
2023-05-04T18:24:49.911Z,4.00
2023-05-04T18:27:17.249Z,3.90
2023-05-04T18:29:45.478Z,3.60
2023-05-04T18:32:13.122Z,4.10
2023-05-04T18:34:40.234Z,4.40
2023-05-04T18:37:07.963Z,4.30
2023-05-04T18:39:35.032Z,4.90
2023-05-04T18:42:02.129Z,5.20
2023-05-04T18:44:29.329Z,5.80
2023-05-04T18:46:56.945Z,7.30
2023-05-04T18:49:23.982Z,6.30
2023-05-04T18:51:52.327Z,6.90
2023-05-04T18:54:19.356Z,7.10
2023-05-04T18:56:46.412Z,6.90
2023-05-04T18:59:14.800Z,6.70
2023-05-04T19:01:42.273Z,7.50
2023-05-04T19:04:09.386Z,7.80
2023-05-04T19:06:36.444Z,7.30
2023-05-04T19:09:03.652Z,7.50
2023-05-04T19:11:31.137Z,7.00
2023-05-04T19:13:59.122Z,6.80
2023-05-04T19:16:29.051Z,6.90
2023-05-04T19:18:56.071Z,6.90
2023-05-04T19:21:23.086Z,6.00
2023-05-04T19:23:50.061Z,5.70
2023-05-04T19:26:17.393Z,5.50
2023-05-04T19:28:44.494Z,5.50
2023-05-04T19:31:11.646Z,5.10
2023-05-04T19:33:47.914Z,4.80
2023-05-04T19:36:17.215Z,5.40
2023-05-04T19:38:44.500Z,5.30
2023-05-04T19:41:11.662Z,5.50
2023-05-04T19:43:39.072Z,6.10
2023-05-04T19:46:06.429Z,5.80
2023-05-04T19:48:33.541Z,5.00
2023-05-04T19:51:00.607Z,5.40
2023-05-04T19:53:28.607Z,5.40
2023-05-04T19:55:55.736Z,5.70
2023-05-04T19:58:26.149Z,5.50
2023-05-04T20:00:53.723Z,5.60
2023-05-04T20:03:21.133Z,6.10
2023-05-04T20:05:48.206Z,6.00
2023-05-04T20:08:15.243Z,6.10
2023-05-04T20:10:42.371Z,6.20
2023-05-04T20:13:09.407Z,5.90
2023-05-04T20:15:36.402Z,5.30
2023-05-04T20:18:03.690Z,4.90
2023-05-04T20:20:30.700Z,4.70
2023-05-04T20:22:57.728Z,5.10
2023-05-04T20:25:24.964Z,4.60
2023-05-04T20:27:52.912Z,4.60
2023-05-04T20:30:20.210Z,4.50
2023-05-04T20:32:50.395Z,4.20
2023-05-04T20:35:17.671Z,4.20
2023-05-04T20:37:44.675Z,4.40
2023-05-04T20:40:12.448Z,4.50
2023-05-04T20:42:39.438Z,4.20
2023-05-04T20:45:07.401Z,4.50
2023-05-04T20:47:34.907Z,4.50
2023-05-04T20:50:02.098Z,4.40
2023-05-04T20:52:29.045Z,4.20
2023-05-04T20:54:56.246Z,4.70
2023-05-04T20:57:23.264Z,4.00
2023-05-04T20:59:50.271Z,3.70
2023-05-04T21:02:17.236Z,3.80
2023-05-04T21:04:47.537Z,4.50
2023-05-04T21:07:15.037Z,4.10
2023-05-04T21:09:42.072Z,3.90
2023-05-04T21:12:09.177Z,4.30
2023-05-04T21:14:36.266Z,4.10
2023-05-04T21:17:03.286Z,4.80
2023-05-04T21:19:30.281Z,7.30
2023-05-04T21:21:57.356Z,7.20
2023-05-04T21:24:24.371Z,7.50
2023-05-04T21:26:51.426Z,7.00
2023-05-04T21:29:18.967Z,7.00
2023-05-04T21:31:46.663Z,6.20
2023-05-04T21:34:13.748Z,6.50
2023-05-04T21:36:41.884Z,6.80
2023-05-04T21:39:09.445Z,7.00
2023-05-04T21:41:36.536Z,7.20
2023-05-04T21:44:03.770Z,7.10
2023-05-04T21:46:30.859Z,6.80
2023-05-04T21:48:57.931Z,6.70
2023-05-04T21:51:24.934Z,5.70
2023-05-04T21:53:52.021Z,5.90
2023-05-04T21:56:19.008Z,5.70
2023-05-04T21:58:46.205Z,6.00
2023-05-04T22:01:19.977Z,5.30
2023-05-04T22:03:47.232Z,5.20
2023-05-04T22:06:14.310Z,5.40
2023-05-04T22:08:41.308Z,5.40
2023-05-04T22:11:09.391Z,5.70
2023-05-04T22:13:36.503Z,5.40
2023-05-04T22:16:03.581Z,5.30
2023-05-04T22:18:30.834Z,5.70
2023-05-04T22:20:57.990Z,5.50
2023-05-04T22:23:25.488Z,5.70
2023-05-04T22:25:52.560Z,4.90
2023-05-04T22:28:19.529Z,5.50
2023-05-04T22:30:47.129Z,4.90
2023-05-04T22:33:14.260Z,4.60
2023-05-04T22:35:41.298Z,4.80
2023-05-04T22:38:08.323Z,5.10
2023-05-04T22:40:36.109Z,4.90
2023-05-04T22:43:05.268Z,5.00
2023-05-04T22:45:34.819Z,4.40
2023-05-04T22:48:01.842Z,4.50
2023-05-04T22:50:28.868Z,4.60
2023-05-04T22:52:55.994Z,4.50
2023-05-04T22:55:23.302Z,4.20
2023-05-04T22:57:50.481Z,4.70
2023-05-04T23:00:18.489Z,4.50
2023-05-04T23:02:45.507Z,3.90
2023-05-04T23:05:13.221Z,4.30
2023-05-04T23:07:40.606Z,4.70
2023-05-04T23:10:08.294Z,4.90
2023-05-04T23:12:35.478Z,4.30
2023-05-04T23:15:03.106Z,4.50
2023-05-04T23:17:30.124Z,4.50
2023-05-04T23:19:57.668Z,4.10
2023-05-04T23:22:24.662Z,4.10
2023-05-04T23:24:51.864Z,4.70
2023-05-04T23:27:18.861Z,4.60
2023-05-04T23:29:46.114Z,4.40
2023-05-04T23:32:13.111Z,4.30
2023-05-04T23:34:40.155Z,4.90
2023-05-04T23:37:07.161Z,4.10
2023-05-04T23:39:34.914Z,4.60
2023-05-04T23:42:01.911Z,3.90
2023-05-04T23:44:28.890Z,4.10
2023-05-04T23:46:55.966Z,4.30
2023-05-04T23:49:22.929Z,4.40
2023-05-04T23:51:49.900Z,4.20
2023-05-04T23:54:16.871Z,3.80
2023-05-04T23:56:43.897Z,4.90
2023-05-04T23:59:10.926Z,4.20
